createdAt,value
2022-12-31T00:09:25.772Z,75.90
2022-12-31T00:19:32.327Z,77.80
2022-12-31T00:29:38.613Z,76.80
2022-12-31T00:39:44.940Z,74.30
2022-12-31T00:49:51.273Z,79.10
2022-12-31T00:59:57.669Z,75.50
2022-12-31T01:10:04.200Z,74.60
2022-12-31T01:20:10.744Z,80.80
2022-12-31T01:30:17.027Z,78.90
2022-12-31T01:40:23.321Z,43.80
2022-12-31T01:50:32.535Z,44.20
2022-12-31T02:00:39.096Z,26.80
2022-12-31T02:10:45.412Z,27.90
2022-12-31T02:20:57.603Z,21.30
2022-12-31T02:31:16.026Z,21.50
2022-12-31T02:41:41.029Z,20.60
2022-12-31T02:51:54.621Z,18.90
2022-12-31T03:02:15.089Z,20.80
2022-12-31T03:12:42.942Z,18.90
2022-12-31T03:22:49.251Z,17.70
2022-12-31T03:32:57.445Z,18.10
2022-12-31T03:43:03.747Z,18.80
2022-12-31T03:53:10.128Z,21.70
2022-12-31T04:03:16.587Z,18.10
2022-12-31T04:13:22.933Z,16.50
2022-12-31T04:23:29.481Z,17.20
2022-12-31T04:33:35.796Z,14.90
2022-12-31T04:43:42.482Z,15.50
2022-12-31T04:53:49.049Z,15.80
2022-12-31T05:03:55.442Z,16.30
2022-12-31T05:14:01.720Z,17.60
2022-12-31T05:24:08.505Z,14.20
2022-12-31T05:34:14.837Z,14.60
2022-12-31T05:44:21.111Z,15.10
2022-12-31T05:54:27.472Z,15.90
2022-12-31T06:04:33.842Z,15.30
2022-12-31T06:14:45.431Z,13.60
2022-12-31T06:24:52.176Z,11.90
2022-12-31T06:34:58.796Z,11.90
2022-12-31T06:45:05.516Z,10.30
2022-12-31T06:55:12.408Z,10.50
2022-12-31T07:05:27.862Z,10.20
2022-12-31T07:15:58.839Z,10.10
2022-12-31T07:26:14.622Z,10.80
2022-12-31T07:36:32.414Z,11.60
2022-12-31T07:46:57.723Z,11.00
2022-12-31T07:57:04.257Z,10.00
2022-12-31T08:07:24.570Z,7.80
2022-12-31T08:17:31.095Z,8.60
2022-12-31T08:27:40.461Z,8.50
2022-12-31T08:38:01.768Z,8.40
2022-12-31T08:48:37.422Z,7.20
2022-12-31T08:59:01.514Z,7.50
2022-12-31T09:09:30.464Z,6.60
2022-12-31T09:19:36.798Z,7.50
2022-12-31T09:29:45.754Z,7.10
2022-12-31T09:39:52.307Z,6.60
2022-12-31T09:50:04.712Z,6.70
2022-12-31T10:00:16.847Z,5.90
2022-12-31T10:10:39.082Z,5.50
2022-12-31T10:21:00.530Z,5.10
2022-12-31T10:31:15.940Z,5.40
2022-12-31T10:41:31.248Z,4.80
2022-12-31T10:51:59.370Z,5.40
2022-12-31T11:02:17.994Z,4.60
2022-12-31T11:12:42.943Z,5.70
2022-12-31T11:23:05.427Z,5.90
2022-12-31T11:33:33.401Z,5.20
2022-12-31T11:44:13.259Z,5.70
2022-12-31T11:54:22.353Z,5.90
2022-12-31T12:04:29.390Z,7.20
2022-12-31T12:14:41.831Z,6.80
2022-12-31T12:25:09.071Z,6.90
2022-12-31T12:35:17.606Z,7.20
2022-12-31T12:45:50.731Z,7.10
2022-12-31T12:56:23.926Z,7.70
2022-12-31T13:06:47.526Z,5.90
2022-12-31T13:16:56.718Z,7.30
2022-12-31T13:27:20.620Z,9.90
2022-12-31T13:37:35.205Z,7.50
2022-12-31T13:47:50.911Z,6.10
2022-12-31T13:58:06.419Z,8.80
2022-12-31T14:08:12.774Z,8.30
2022-12-31T14:18:24.450Z,11.20
2022-12-31T14:28:51.063Z,12.10
2022-12-31T14:39:19.575Z,16.40
2022-12-31T14:49:44.377Z,13.10
2022-12-31T14:59:56.909Z,10.70
2022-12-31T15:10:15.172Z,10.10
2022-12-31T15:20:30.515Z,9.50
2022-12-31T15:30:41.363Z,8.60
2022-12-31T15:40:50.772Z,8.80
2022-12-31T15:51:00.238Z,13.30
2022-12-31T16:01:21.039Z,17.70
2022-12-31T16:11:31.193Z,26.40
2022-12-31T16:21:39.124Z,15.70
2022-12-31T16:31:47.008Z,14.40
2022-12-31T16:41:54.073Z,12.80
2022-12-31T16:52:05.021Z,14.80
2022-12-31T17:02:17.712Z,13.20
2022-12-31T17:12:26.455Z,15.10
2022-12-31T17:22:37.250Z,10.80
2022-12-31T17:32:46.061Z,10.90
2022-12-31T17:42:52.376Z,12.70
2022-12-31T17:53:01.896Z,13.50
2022-12-31T18:03:08.283Z,15.00
2022-12-31T18:13:24.106Z,13.10
2022-12-31T18:23:34.324Z,12.60
2022-12-31T18:33:40.611Z,11.50
2022-12-31T18:43:47.546Z,12.00
2022-12-31T18:53:53.834Z,12.00
2022-12-31T19:04:04.956Z,12.70
2022-12-31T19:14:23.370Z,11.70
2022-12-31T19:24:29.352Z,10.15
2022-12-31T19:34:35.690Z,9.10
2022-12-31T19:44:42.040Z,11.60
2022-12-31T19:54:48.781Z,11.00
2022-12-31T20:04:55.105Z,11.00
2022-12-31T20:15:01.445Z,11.40
2022-12-31T20:25:08.073Z,10.60
2022-12-31T20:35:14.382Z,10.30
2022-12-31T20:45:20.663Z,10.50
2022-12-31T20:55:26.935Z,12.40
2022-12-31T21:05:33.473Z,14.00
2022-12-31T21:15:39.990Z,15.30
2022-12-31T21:25:47.171Z,15.00
2022-12-31T21:35:54.291Z,16.00
2022-12-31T21:46:07.237Z,19.00
2022-12-31T21:56:15.692Z,17.10
2022-12-31T22:06:23.355Z,15.70
2022-12-31T22:16:29.706Z,14.20
2022-12-31T22:26:36.887Z,15.10
2022-12-31T22:36:45.663Z,13.20
2022-12-31T22:46:52.037Z,13.00
2022-12-31T22:56:58.427Z,13.10
2022-12-31T23:07:04.825Z,11.50
2022-12-31T23:17:44.579Z,23.50
2022-12-31T23:27:50.904Z,19.40
2022-12-31T23:37:57.201Z,11.30
2022-12-31T23:48:03.708Z,10.40
2022-12-31T23:58:10.072Z,15.50
